Butler Co Rgnl Airport - Hamilton, Ohio, United States - FAA: HAO - ICAO: KHAO - IATA: HAO

 
  Longest Runway: 5,500 feet   Approach Types: ILS/DME    Customs Landing Rights Airport: No   Port of Entry: No

Local Forecast

Today (1/18): Sunny, with a high near 32. Southwest wind around 14 mph.

Tonight (1/18): Mostly clear, with a low around 16. Southwest wind 5 to 7 mph.

Friday (1/19): Sunny, with a high near 40. Light south wind becoming southwest 5 to 10 mph in the morning.

Friday Night (1/19): Mostly clear, with a low around 28. Southwest wind around 8 mph.

Saturday (1/20): Partly sunny, with a high near 43. Southwest wind 7 to 9 mph.

Saturday Night (1/20): A chance of rain, mainly after 10pm. Cloudy, with a low around 37. Chance of precipitation is 30%. New precipitation amounts of less than a tenth of an inch possible.

Sunday (1/21): A chance of rain before noon. Cloudy, with a high near 49. Chance of precipitation is 30%.



Current Weather (METAR)

2019/10/17 05:53 KHAO 170553Z AUTO 27004KT 10SM CLR 07/03 A2998 RMK AO2 SLP154 T00720033 10106 20072 58003

BUTLER COUNTY REGIONAL AIRPORT , OH, United States (KHAO) 39-22N 84-31W 188M Oct 17, 2019 - 01:53 AM EDT / 2019.10.17 0553 UTC Wind: from the W (270 degrees) at 5 MPH (4 KT):0 Visibility: 10 mile(s):0 Sky conditions: clear Temperature: 45.0 F (7.2 C) Dew Point: 37.9 F (3.3 C) Relative Humidity: 76% Pressure (altimeter): 29.98 in. Hg (1015 hPa) Pressure tendency: 0.01 inches (0.3 hPa) lower than three hours ago ob: KHAO 170553Z AUTO 27004KT 10SM CLR 07/03 A2998 RMK AO2 SLP154 T00720033 10106 20072 58003 cycle: 6

Terminal Forecast (TAF)